Kezdőlap
METAR-TAF:

METAR-TAF

Repülőterek :

Fairmont Municipal Airport

Fairmont, Minnesota, Amerikai Egyesült Államok

földrajzi szélesség: 43-39N, földrajzi hosszúság: 094-25W, magasság: 354 m

Jelenlegi meteorológiai megfigyelések

A jelentés 31 perccel ezelõtt készült, 06:05 UTC
Kelet-északkeleti szél 3 kt
Hőmérséklet 19°C
Páratartalom 94%
Légköri nyomás 1011 hPa
Látótávolság: 8.0 km
Szakadozott felhőzet 600 lábon
Borult 1800 lábon
Párásság

METAR: KFRM 260605Z AUTO 06003KT 5SM BR BKN006 OVC018 19/18 A2986 RMK AO2

Idő: 01:36 (06:36 UTC)


TAF: hiányzik

Meteorológiai megfigyelések és előrejelzések több, mint 4000 repülőtéren (METAR és TAF jelentéseket).

A térképen piros és sárga pontok jelzik az elérhető meteorológiai állomásokat.

Mozgassa az egeret a pont fölött, hogy megjelenjen az állomás neve.

Azután kattintson az időjárási megfigyelések és előrejelzések megtekintéséhez.

A térkép megváltoztatása: kattintson a fekete keresztel jelölt zöld gombra ráközelítéshez, a vonallal jelölt zöld gombra távolításhoz, vagy a zöld nyilakra a szomszédos térképek eléréséhez.


METAR-TAF: